Time;durP1;ratioP1;P1;durP2;ratioP2;P2;SDS_P1;SDS_P2;PMS_P1;PMS_P2;Temp;Humidity;BMP_temperature;BMP_pressure;BME280_temperature;BME280_humidity;BME280_pressure;Samples;Min_cycle;Max_cycle;Signal;HPM_P1;HPM_P2
2022/10/09 00:01:01;;;;;;;;;15.50;13.50;;;;;15.43;47.24;101903.00;5113899;27;45095;-65
2022/10/09 00:03:27;;;;;;;;;16.00;12.00;;;;;15.38;47.82;101897.50;5114794;27;45027;-63
2022/10/09 00:05:52;;;;;;;;;13.00;11.00;;;;;15.37;47.34;101889.38;5114360;27;46233;-64
2022/10/09 00:08:17;;;;;;;;;14.25;10.50;;;;;15.34;47.60;101894.69;5109634;27;64436;-64
2022/10/09 00:10:43;;;;;;;;;15.25;12.00;;;;;15.33;47.64;101895.56;5114677;27;45038;-63
2022/10/09 00:13:10;;;;;;;;;12.25;11.25;;;;;15.20;47.68;101878.19;5114217;27;45157;-63
2022/10/09 00:15:40;;;;;;;;;20.00;12.00;;;;;15.24;47.56;101888.16;5114951;27;45607;-64
2022/10/09 00:18:06;;;;;;;;;17.00;13.50;;;;;15.27;47.89;101894.53;5115101;27;45038;-62
2022/10/09 00:20:41;;;;;;;;;13.75;12.00;;;;;15.28;48.02;101895.47;5114354;27;45238;-64
2022/10/09 00:23:07;;;;;;;;;16.50;12.75;;;;;15.23;47.91;101892.66;5112885;27;45082;-67
2022/10/09 00:25:34;;;;;;;;;12.25;9.25;;;;;15.24;47.66;101893.53;5112536;27;46453;-65
2022/10/09 00:28:00;;;;;;;;;16.25;12.25;;;;;15.23;48.00;101887.25;5113776;27;45060;-62
2022/10/09 00:30:26;;;;;;;;;15.75;13.50;;;;;15.22;47.98;101885.44;5110473;27;45221;-63
2022/10/09 00:32:52;;;;;;;;;13.00;13.00;;;;;15.21;48.01;101880.00;5114564;27;45104;-64
2022/10/09 00:35:17;;;;;;;;;13.75;11.75;;;;;15.20;47.85;101884.50;5114635;27;45174;-63
2022/10/09 00:37:42;;;;;;;;;15.75;15.00;;;;;15.19;47.59;101884.44;5115133;27;46125;-67
2022/10/09 00:40:08;;;;;;;;;10.25;10.25;;;;;15.14;48.03;101883.41;5112403;27;45236;-64
2022/10/09 00:42:33;;;;;;;;;11.25;11.25;;;;;15.08;48.19;101868.03;5119268;27;45139;-62
2022/10/09 00:45:00;;;;;;;;;11.50;10.00;;;;;15.11;48.44;101886.94;5115913;27;46167;-64
2022/10/09 00:47:46;;;;;;;;;14.75;11.75;;;;;15.11;47.94;101876.16;5116445;27;44974;-65
2022/10/09 00:50:18;;;;;;;;;12.75;9.50;;;;;15.09;48.56;101881.50;5110821;27;45437;-64
2022/10/09 00:52:44;;;;;;;;;11.25;10.00;;;;;15.05;48.13;101871.53;5113383;27;45105;-63
2022/10/09 00:55:12;;;;;;;;;10.00;10.00;;;;;15.05;48.17;101874.22;5112198;27;45041;-62
2022/10/09 00:57:40;;;;;;;;;13.67;10.33;;;;;14.90;48.13;101860.38;5113120;27;45213;-67
2022/10/09 01:00:09;;;;;;;;;12.00;11.00;;;;;14.96;48.54;101867.69;5112982;27;45123;-62
2022/10/09 01:02:35;;;;;;;;;11.00;9.33;;;;;14.97;48.67;101878.50;5111423;27;45246;-64
2022/10/09 01:05:00;;;;;;;;;12.25;11.25;;;;;14.85;48.78;101860.25;5110767;27;46137;-66
2022/10/09 01:07:34;;;;;;;;;11.75;11.50;;;;;14.78;48.49;101839.41;5112461;27;44984;-64
2022/10/09 01:10:08;;;;;;;;;12.00;10.75;;;;;14.90;48.61;101869.34;5113027;27;44903;-63
2022/10/09 01:13:02;;;;;;;;;12.50;9.00;;;;;14.89;48.82;101859.44;5112408;27;45229;-65
2022/10/09 01:15:34;;;;;;;;;10.25;10.00;;;;;14.85;48.42;101860.25;5111709;27;45269;-63
2022/10/09 01:18:22;;;;;;;;;9.75;8.25;;;;;14.83;48.93;101863.75;5109146;27;45502;-62
2022/10/09 01:20:50;;;;;;;;;10.00;7.75;;;;;14.82;48.88;101852.09;5111715;27;44940;-63
2022/10/09 01:23:31;;;;;;;;;11.50;10.00;;;;;14.82;48.95;101849.41;5112295;27;45300;-63
2022/10/09 01:26:23;;;;;;;;;14.00;9.75;;;;;14.82;48.98;101849.41;5108710;27;45161;-63
2022/10/09 01:28:54;;;;;;;;;9.00;9.00;;;;;14.83;48.74;101837.78;5112537;27;45253;-64
2022/10/09 01:31:23;;;;;;;;;19.00;12.00;;;;;14.82;48.71;101835.06;5110571;27;45149;-63
2022/10/09 01:33:50;;;;;;;;;11.50;9.75;;;;;14.81;48.86;101830.53;5114169;27;45103;-63
2022/10/09 01:36:17;;;;;;;;;15.00;12.75;;;;;14.78;48.93;101831.34;5113125;27;45577;-62
2022/10/09 01:38:44;;;;;;;;;12.75;10.75;;;;;14.69;48.98;101815.88;5112663;27;45073;-63
2022/10/09 01:41:10;;;;;;;;;11.25;10.50;;;;;14.73;49.23;101825.88;5114081;27;44986;-63
2022/10/09 01:43:35;;;;;;;;;16.75;13.25;;;;;14.63;49.36;101804.06;5113927;27;44839;-64
2022/10/09 01:46:26;;;;;;;;;11.00;10.00;;;;;14.72;49.12;101813.28;5109740;27;46180;-63
2022/10/09 01:49:18;;;;;;;;;11.00;9.75;;;;;14.72;49.23;101807.00;5105495;27;45062;-62
2022/10/09 01:51:50;;;;;;;;;14.25;9.75;;;;;14.66;49.01;101804.16;5111014;27;44979;-63
2022/10/09 01:54:25;;;;;;;;;12.25;11.50;;;;;14.64;49.37;101796.03;5113591;27;45020;-62
2022/10/09 01:56:53;;;;;;;;;12.00;11.00;;;;;14.64;49.36;101800.50;5110580;27;45991;-64
2022/10/09 01:59:19;;;;;;;;;12.50;10.50;;;;;14.61;49.27;101795.03;5113442;27;45233;-63
2022/10/09 02:01:46;;;;;;;;;10.00;9.00;;;;;14.53;49.56;101778.66;5113557;27;45130;-62
2022/10/09 02:04:13;;;;;;;;;7.25;7.25;;;;;14.52;49.60;101780.44;5112987;27;45012;-62
2022/10/09 02:06:40;;;;;;;;;10.50;9.75;;;;;14.53;49.87;101786.72;5112304;27;45821;-63
2022/10/09 02:09:10;;;;;;;;;11.25;10.00;;;;;14.49;50.05;101784.84;5111652;27;44983;-62
2022/10/09 02:11:39;;;;;;;;;9.75;9.75;;;;;14.44;50.01;101786.50;5113374;27;45139;-67
2022/10/09 02:14:05;;;;;;;;;10.25;8.50;;;;;14.41;49.87;101778.34;5109371;27;45403;-66
2022/10/09 02:16:36;;;;;;;;;9.00;8.00;;;;;14.42;50.40;101772.06;5113307;27;45805;-65
2022/10/09 02:19:23;;;;;;;;;13.00;10.00;;;;;14.40;49.79;101773.81;5113224;27;45106;-65
2022/10/09 02:22:15;;;;;;;;;14.50;8.50;;;;;14.39;49.94;101767.56;5113315;27;45041;-64
2022/10/09 02:24:41;;;;;;;;;8.50;8.25;;;;;14.43;50.05;101768.53;5112578;27;45133;-64
2022/10/09 02:27:09;;;;;;;;;10.00;6.50;;;;;14.30;50.22;101735.03;5113772;27;45391;-62
2022/10/09 02:29:38;;;;;;;;;11.50;8.00;;;;;14.41;50.09;101760.44;5110431;27;45086;-64
2022/10/09 02:32:03;;;;;;;;;5.25;3.50;;;;;14.31;50.08;101745.81;5116401;27;45138;-66
2022/10/09 02:34:29;;;;;;;;;10.25;7.50;;;;;14.05;49.65;101690.47;5114166;27;45111;-65
2022/10/09 02:36:54;;;;;;;;;7.50;6.00;;;;;14.33;49.98;101743.19;5112935;27;45679;-64
2022/10/09 02:39:19;;;;;;;;;9.00;7.00;;;;;14.37;50.31;101746.00;5109757;27;45314;-65
2022/10/09 02:41:45;;;;;;;;;12.67;7.00;;;;;14.37;50.40;101753.16;5108044;27;45218;-63
2022/10/09 02:44:10;;;;;;;;;7.75;5.50;;;;;14.36;50.25;101745.94;5106609;27;45178;-62
2022/10/09 02:46:37;;;;;;;;;9.00;7.00;;;;;14.35;50.13;101746.81;5112554;27;45753;-63
2022/10/09 02:49:03;;;;;;;;;8.25;7.50;;;;;14.34;49.79;101740.53;5107904;27;45110;-63
2022/10/09 02:51:28;;;;;;;;;7.25;6.75;;;;;14.35;50.12;101744.13;5091152;28;45626;-66
2022/10/09 02:53:54;;;;;;;;;9.00;7.50;;;;;14.34;50.19;101736.94;5092232;28;45532;-67
2022/10/09 02:56:21;;;;;;;;;10.25;7.50;;;;;14.32;49.86;101735.97;5090114;28;45498;-62
2022/10/09 02:58:46;;;;;;;;;8.75;7.00;;;;;14.30;50.56;101732.34;5088910;28;45446;-65
2022/10/09 03:01:12;;;;;;;;;7.25;7.25;;;;;14.25;50.32;101726.84;5089170;28;45525;-63
2022/10/09 03:03:37;;;;;;;;;7.00;7.00;;;;;13.86;50.46;101659.47;5084682;28;45187;-63
2022/10/09 03:06:10;;;;;;;;;11.50;10.00;;;;;14.26;50.66;101728.66;5090525;28;45436;-63
2022/10/09 03:08:39;;;;;;;;;9.25;6.00;;;;;14.25;50.29;101726.84;5090707;28;45116;-65
2022/10/09 03:11:05;;;;;;;;;11.75;8.50;;;;;14.24;50.32;101730.41;5091420;28;45021;-63
2022/10/09 03:13:31;;;;;;;;;9.25;8.00;;;;;14.24;50.44;101726.78;5087379;28;45032;-64
2022/10/09 03:16:04;;;;;;;;;7.75;7.75;;;;;14.21;50.57;101718.66;5083711;28;45175;-62
2022/10/09 03:18:29;;;;;;;;;15.25;13.25;;;;;14.11;50.39;101706.75;5088993;28;45241;-66
2022/10/09 03:20:55;;;;;;;;;12.25;9.50;;;;;14.04;50.38;101686.88;5091521;27;45140;-63
2022/10/09 03:23:20;;;;;;;;;9.00;7.67;;;;;14.14;50.57;101709.53;5089758;27;54669;-66
2022/10/09 03:25:54;;;;;;;;;7.00;7.00;;;;;14.04;50.68;101692.25;5093309;28;64691;-68
2022/10/09 03:28:19;;;;;;;;;9.00;8.00;;;;;14.11;50.60;101707.66;5090618;28;45072;-67
2022/10/09 03:30:45;;;;;;;;;9.50;6.75;;;;;14.10;50.30;101704.94;5090240;28;65295;-63
2022/10/09 03:33:10;;;;;;;;;9.75;9.00;;;;;13.99;50.32;101688.50;5094300;28;51408;-67
2022/10/09 03:35:35;;;;;;;;;8.00;8.00;;;;;14.06;50.71;101700.34;5094212;28;45479;-66
2022/10/09 03:38:01;;;;;;;;;6.75;5.25;;;;;14.07;50.77;101702.16;5090976;28;64133;-63
2022/10/09 03:40:26;;;;;;;;;9.50;7.50;;;;;14.04;50.83;101704.75;5092390;28;45409;-62
2022/10/09 03:42:51;;;;;;;;;15.25;9.25;;;;;14.00;50.88;101690.31;5093887;28;45057;-67
2022/10/09 03:45:16;;;;;;;;;7.50;7.00;;;;;14.00;51.02;101701.06;5091138;27;63826;-63
2022/10/09 03:47:42;;;;;;;;;12.00;9.50;;;;;13.55;50.58;101624.63;5092316;27;57230;-64
2022/10/09 03:50:07;;;;;;;;;12.50;8.50;;;;;13.94;50.61;101690.16;5104054;27;55300;-63
2022/10/09 03:52:35;;;;;;;;;9.50;9.50;;;;;13.81;50.72;101673.72;5110786;27;45301;-62
2022/10/09 03:55:00;;;;;;;;;12.00;8.00;;;;;13.94;51.06;101696.47;5107228;27;45763;-63
2022/10/09 03:57:25;;;;;;;;;7.75;7.75;;;;;13.94;50.57;101699.13;5112830;27;45363;-65
2022/10/09 03:59:51;;;;;;;;;8.75;7.00;;;;;13.94;51.35;101696.47;5115420;27;45011;-64
2022/10/09 04:02:16;;;;;;;;;7.50;6.25;;;;;13.93;50.98;101694.63;5115939;27;45157;-66
2022/10/09 04:04:41;;;;;;;;;8.00;7.25;;;;;13.94;51.34;101687.47;5110846;27;59094;-65
2022/10/09 04:07:07;;;;;;;;;11.00;7.50;;;;;13.90;50.64;101685.56;5115256;27;45113;-63
2022/10/09 04:09:32;;;;;;;;;10.50;7.50;;;;;13.87;50.88;101682.81;5115267;27;57677;-63
2022/10/09 04:11:57;;;;;;;;;10.75;8.75;;;;;13.78;50.83;101672.72;5115648;27;52914;-64
2022/10/09 04:14:22;;;;;;;;;12.00;9.25;;;;;13.83;51.08;101685.41;5116190;27;59999;-67
2022/10/09 04:16:48;;;;;;;;;6.50;6.25;;;;;13.62;50.86;101648.09;5112503;27;64789;-66
2022/10/09 04:19:13;;;;;;;;;10.25;5.75;;;;;13.83;51.63;101687.19;5113321;27;45342;-67
2022/10/09 04:21:38;;;;;;;;;7.25;6.00;;;;;13.78;51.65;101670.94;5116798;27;45304;-65
2022/10/09 04:24:07;;;;;;;;;6.00;5.25;;;;;13.83;51.28;101688.09;5114257;27;45707;-63
2022/10/09 04:26:32;;;;;;;;;6.75;6.00;;;;;13.81;50.95;101688.91;5117151;27;45039;-61
2022/10/09 04:28:57;;;;;;;;;8.50;7.25;;;;;13.82;51.63;101688.94;5111083;27;45453;-65
2022/10/09 04:31:23;;;;;;;;;9.00;7.75;;;;;13.80;51.41;101679.03;5110494;27;58469;-64
2022/10/09 04:33:48;;;;;;;;;8.75;6.75;;;;;13.75;51.10;101678.00;5113486;27;46861;-63
2022/10/09 04:36:13;;;;;;;;;8.75;7.00;;;;;13.76;51.18;101694.16;5114577;27;60538;-63
2022/10/09 04:38:38;;;;;;;;;6.50;6.50;;;;;13.75;50.94;101688.75;5115695;27;45233;-64
2022/10/09 04:41:05;;;;;;;;;8.50;6.25;;;;;13.73;50.90;101686.00;5114250;27;46340;-63
2022/10/09 04:43:32;;;;;;;;;9.50;7.75;;;;;13.71;51.88;101682.38;5112807;27;45064;-63
2022/10/09 04:45:57;;;;;;;;;9.50;7.25;;;;;13.33;51.32;101620.44;5113545;27;44934;-66
2022/10/09 04:48:23;;;;;;;;;8.00;8.00;;;;;13.65;51.61;101674.13;5110156;27;45105;-62
2022/10/09 04:50:49;;;;;;;;;10.25;6.50;;;;;13.70;51.33;101688.59;5096295;27;45060;-64
2022/10/09 04:53:15;;;;;;;;;6.75;6.00;;;;;13.57;51.62;101654.22;5093329;28;46048;-65
2022/10/09 04:55:43;;;;;;;;;9.25;6.75;;;;;13.68;51.59;101674.22;5090843;28;45009;-67
2022/10/09 04:58:11;;;;;;;;;10.50;10.00;;;;;13.70;51.91;101679.66;5091235;28;45282;-64
2022/10/09 05:00:41;;;;;;;;;8.75;7.75;;;;;13.71;51.98;101676.06;5094273;28;45060;-64
2022/10/09 05:03:06;;;;;;;;;8.00;8.00;;;;;13.70;51.54;101676.97;5091040;28;45243;-66
2022/10/09 05:05:32;;;;;;;;;9.25;7.75;;;;;13.67;51.00;101674.19;5091109;28;45148;-62
2022/10/09 05:07:57;;;;;;;;;7.00;6.75;;;;;13.64;51.77;101667.88;5088058;28;45037;-63
2022/10/09 05:10:22;;;;;;;;;8.25;6.75;;;;;13.47;51.32;101644.09;5074930;28;45238;-62
2022/10/09 05:12:48;;;;;;;;;8.50;7.25;;;;;13.58;51.04;101662.31;5089139;28;46227;-64
2022/10/09 05:15:13;;;;;;;;;10.75;8.50;;;;;13.57;51.90;101663.16;5092591;27;45146;-66
2022/10/09 05:17:38;;;;;;;;;8.75;7.50;;;;;13.54;52.00;101663.06;5072213;28;45063;-65
2022/10/09 05:20:04;;;;;;;;;7.50;6.50;;;;;13.49;51.20;101655.78;5089004;28;56240;-64
2022/10/09 05:22:29;;;;;;;;;11.25;7.00;;;;;13.42;51.33;101657.38;5092868;28;45096;-63
2022/10/09 05:24:54;;;;;;;;;4.00;4.00;;;;;13.42;52.12;101658.25;5093574;28;46203;-63
2022/10/09 05:27:20;;;;;;;;;8.25;7.00;;;;;13.41;51.90;101653.78;5089468;28;55044;-66
2022/10/09 05:29:45;;;;;;;;;8.25;7.00;;;;;13.27;51.71;101647.94;5092560;28;48520;-66
2022/10/09 05:32:10;;;;;;;;;12.75;10.25;;;;;13.22;52.18;101652.28;5091755;28;63846;-67
2022/10/09 05:34:36;;;;;;;;;6.50;6.00;;;;;13.20;52.57;101651.31;5093262;28;49027;-63
2022/10/09 05:37:01;;;;;;;;;7.00;7.00;;;;;13.15;51.81;101641.31;5083816;27;48044;-64
2022/10/09 05:39:26;;;;;;;;;7.00;5.00;;;;;13.17;51.98;101645.88;5092989;27;44873;-65
2022/10/09 05:41:51;;;;;;;;;9.00;7.75;;;;;13.15;52.31;101654.72;5093843;28;45986;-63
2022/10/09 05:44:17;;;;;;;;;6.50;5.75;;;;;13.19;51.87;101649.50;5091331;28;56788;-66
2022/10/09 05:46:42;;;;;;;;;6.50;6.00;;;;;13.18;51.89;101641.41;5092025;28;45160;-65
2022/10/09 05:49:08;;;;;;;;;8.50;6.50;;;;;13.13;52.49;101641.25;5094417;27;45221;-66
2022/10/09 05:51:36;;;;;;;;;6.00;6.00;;;;;13.14;52.78;101659.19;5113062;27;45311;-66
2022/10/09 05:54:03;;;;;;;;;5.00;4.50;;;;;13.14;52.72;101648.44;5110980;27;45154;-62
2022/10/09 05:56:37;;;;;;;;;10.75;5.00;;;;;13.13;51.97;101649.31;5114420;27;45126;-64
2022/10/09 05:59:08;;;;;;;;;6.00;6.00;;;;;13.06;51.96;101642.84;5113348;27;44920;-68
2022/10/09 06:01:35;;;;;;;;;8.75;6.50;;;;;13.05;52.46;101642.78;5110319;27;45776;-63
2022/10/09 06:04:02;;;;;;;;;5.50;4.75;;;;;13.04;52.95;101646.34;5112889;27;45118;-65
2022/10/09 06:06:30;;;;;;;;;5.00;5.00;;;;;12.61;52.04;101576.22;5113797;27;45095;-67
2022/10/09 06:08:56;;;;;;;;;10.50;5.00;;;;;13.03;52.73;101641.84;5111207;27;45015;-63
2022/10/09 06:11:27;;;;;;;;;7.00;6.00;;;;;12.90;52.31;101630.75;5109366;27;45557;-65
2022/10/09 06:13:52;;;;;;;;;5.00;3.50;;;;;12.97;52.87;101642.59;5110826;27;45265;-63
2022/10/09 06:16:18;;;;;;;;;6.25;5.75;;;;;12.96;52.25;101640.75;5097131;27;45462;-63
2022/10/09 06:18:48;;;;;;;;;6.75;5.00;;;;;12.96;53.18;101643.44;5092620;27;46202;-67
2022/10/09 06:21:14;;;;;;;;;7.00;6.25;;;;;12.97;52.37;101645.25;5094430;27;46204;-66
2022/10/09 06:23:40;;;;;;;;;6.00;6.00;;;;;12.81;53.04;101621.50;5094028;27;45509;-66
2022/10/09 06:26:07;;;;;;;;;7.75;6.00;;;;;12.95;52.54;101643.38;5090860;27;45454;-68
2022/10/09 06:28:34;;;;;;;;;7.25;6.00;;;;;12.92;52.46;101638.84;5095549;27;45348;-64
2022/10/09 06:31:11;;;;;;;;;9.00;7.50;;;;;12.45;52.61;101557.81;5098403;27;46242;-62
2022/10/09 06:33:39;;;;;;;;;9.00;7.00;;;;;12.93;52.95;101640.66;5089648;27;45532;-67
2022/10/09 06:36:07;;;;;;;;;6.00;6.00;;;;;12.84;52.43;101622.50;5094179;27;45517;-64
2022/10/09 06:38:34;;;;;;;;;9.50;7.75;;;;;12.87;51.98;101632.44;5101564;27;45676;-65
2022/10/09 06:41:04;;;;;;;;;6.00;5.50;;;;;12.73;53.28;101608.75;5093527;27;45434;-65
2022/10/09 06:43:29;;;;;;;;;4.50;4.50;;;;;12.87;53.36;101636.00;5102197;27;45503;-67
2022/10/09 06:45:55;;;;;;;;;7.75;7.00;;;;;12.82;53.16;101624.25;5095915;27;45569;-63
2022/10/09 06:48:20;;;;;;;;;5.25;4.00;;;;;12.88;52.78;101636.91;5102224;27;45308;-64
2022/10/09 06:50:46;;;;;;;;;7.25;6.00;;;;;12.84;52.35;101630.56;5103453;27;58091;-66
2022/10/09 06:53:11;;;;;;;;;9.25;6.25;;;;;12.87;52.71;101636.00;5100275;27;63451;-63
2022/10/09 06:55:36;;;;;;;;;6.00;6.00;;;;;12.89;53.17;101641.44;5100502;27;45403;-67
2022/10/09 06:58:02;;;;;;;;;7.00;5.00;;;;;12.91;52.51;101637.91;5095555;27;45415;-64
2022/10/09 07:00:27;;;;;;;;;5.75;5.25;;;;;12.49;52.59;101563.34;5095388;27;45857;-65
2022/10/09 07:02:52;;;;;;;;;5.50;5.50;;;;;12.91;52.14;101637.91;5094893;27;53477;-62
2022/10/09 07:05:19;;;;;;;;;7.00;6.50;;;;;12.81;51.63;101613.47;5098715;27;61196;-61
2022/10/09 07:07:45;;;;;;;;;6.00;5.50;;;;;12.95;52.50;101627.28;5099755;27;45545;-64
2022/10/09 07:10:10;;;;;;;;;8.00;6.00;;;;;13.00;52.59;101631.00;5095375;27;55722;-64
2022/10/09 07:12:36;;;;;;;;;6.50;6.00;;;;;12.89;52.26;101602.09;5093892;27;48721;-68
2022/10/09 07:15:04;;;;;;;;;8.50;6.00;;;;;13.01;52.28;101631.06;5098344;27;45504;-65
2022/10/09 07:17:29;;;;;;;;;6.75;6.00;;;;;13.03;52.59;101623.06;5108413;27;45113;-65
2022/10/09 07:19:55;;;;;;;;;8.00;6.00;;;;;12.97;52.12;101601.41;5093909;27;58233;-68
2022/10/09 07:22:20;;;;;;;;;17.25;14.75;;;;;13.05;52.27;101613.28;5100387;27;46039;-68
2022/10/09 07:24:46;;;;;;;;;8.25;6.25;;;;;13.03;52.63;101602.53;5102127;27;45464;-68
2022/10/09 07:27:11;;;;;;;;;8.00;7.00;;;;;13.14;52.07;101615.34;5099495;27;45530;-68
2022/10/09 07:29:37;;;;;;;;;8.00;8.00;;;;;13.14;52.13;101608.19;5093476;27;61124;-66
2022/10/09 07:32:02;;;;;;;;;6.75;6.75;;;;;13.21;52.78;101614.66;5104371;27;45293;-63
2022/10/09 07:34:27;;;;;;;;;8.50;7.00;;;;;13.24;52.00;101609.38;5091488;27;45310;-63
2022/10/09 07:36:53;;;;;;;;;6.50;6.50;;;;;13.32;52.70;101612.31;5094948;27;45362;-66
2022/10/09 07:39:18;;;;;;;;;7.75;7.75;;;;;13.37;52.08;101608.00;5094173;27;46025;-67
2022/10/09 07:41:43;;;;;;;;;8.00;6.00;;;;;13.42;51.98;101607.25;5096350;27;45396;-65
2022/10/09 07:44:10;;;;;;;;;7.75;7.75;;;;;13.49;51.57;101602.97;5095452;27;48303;-64
2022/10/09 07:46:36;;;;;;;;;10.00;8.25;;;;;13.56;51.56;101606.75;5092653;27;45640;-64
2022/10/09 07:49:03;;;;;;;;;8.50;7.25;;;;;13.59;51.47;101598.78;5093119;27;45434;-64
2022/10/09 07:51:29;;;;;;;;;13.75;8.00;;;;;13.65;51.08;101604.31;5085702;28;45383;-63
2022/10/09 07:53:56;;;;;;;;;9.00;8.50;;;;;13.68;51.01;101600.78;5087089;28;45214;-69
2022/10/09 07:56:33;;;;;;;;;13.25;10.75;;;;;13.70;51.04;101591.03;5083688;28;45459;-65
2022/10/09 07:59:04;;;;;;;;;8.25;8.25;;;;;13.77;51.00;101598.38;5085711;28;45757;-67
2022/10/09 08:01:31;;;;;;;;;11.00;10.25;;;;;13.81;50.65;101598.50;5088093;28;45308;-69
2022/10/09 08:03:57;;;;;;;;;8.75;8.50;;;;;13.86;51.08;101589.63;5087958;28;45151;-69
2022/10/09 08:06:24;;;;;;;;;13.50;8.75;;;;;13.87;50.88;101583.41;5082519;27;45290;-64
2022/10/09 08:08:51;;;;;;;;;9.00;9.00;;;;;13.92;50.99;101584.44;5083113;28;45603;-66
2022/10/09 08:11:17;;;;;;;;;10.00;10.00;;;;;13.95;50.40;101579.16;5084889;28;45304;-69
2022/10/09 08:13:47;;;;;;;;;9.25;9.00;;;;;13.91;50.43;101555.75;5094388;28;45104;-64
2022/10/09 08:16:13;;;;;;;;;12.00;11.00;;;;;14.09;50.68;101579.47;5093105;28;45064;-64
2022/10/09 08:18:38;;;;;;;;;11.25;8.75;;;;;14.13;50.11;101587.66;5094853;28;46078;-66
2022/10/09 08:21:10;;;;;;;;;11.50;10.50;;;;;14.22;50.36;101580.72;5093212;28;45367;-65
2022/10/09 08:23:36;;;;;;;;;10.00;10.00;;;;;13.81;50.08;101495.53;5093720;28;45177;-69
2022/10/09 08:26:02;;;;;;;;;8.75;8.00;;;;;14.29;50.14;101569.25;5087028;28;45063;-69
2022/10/09 08:28:30;;;;;;;;;12.50;11.25;;;;;14.40;50.08;101567.72;5091914;28;46000;-68
2022/10/09 08:30:55;;;;;;;;;11.00;11.00;;;;;14.45;49.71;101568.75;5085431;28;67794;-68
2022/10/09 08:33:22;;;;;;;;;11.25;10.00;;;;;14.49;50.18;101550.91;5092046;27;45528;-68
2022/10/09 08:35:50;;;;;;;;;10.50;9.50;;;;;14.66;49.43;101564.75;5093266;28;44903;-68
2022/10/09 08:38:16;;;;;;;;;12.25;10.75;;;;;14.58;49.52;101543.03;5087485;28;45585;-66
2022/10/09 08:41:07;;;;;;;;;8.00;8.00;;;;;14.74;49.73;101557.78;5092599;28;45320;-66
2022/10/09 08:43:41;;;;;;;;;11.75;8.25;;;;;14.77;49.25;101557.84;5092844;28;45010;-65
2022/10/09 08:46:36;;;;;;;;;12.00;10.00;;;;;14.85;49.44;101548.16;5091916;28;45226;-63
2022/10/09 08:49:02;;;;;;;;;9.67;7.67;;;;;14.99;49.27;101550.25;5084298;27;45217;-64
2022/10/09 08:51:35;;;;;;;;;6.67;6.67;;;;;14.98;48.65;101535.88;5114454;27;45185;-65
2022/10/09 08:54:17;;;;;;;;;6.75;5.75;;;;;14.91;48.93;101550.06;5113872;27;44998;-69
2022/10/09 08:56:43;;;;;;;;;9.00;7.33;;;;;14.79;49.04;101522.91;5110299;27;45009;-69
2022/10/09 08:59:11;;;;;;;;;6.00;6.00;;;;;14.77;49.30;101519.28;5113588;27;45966;-67
2022/10/09 09:01:47;;;;;;;;;5.25;5.25;;;;;14.97;49.20;101534.06;5111669;27;45468;-66
2022/10/09 09:04:37;;;;;;;;;8.00;5.75;;;;;14.98;49.36;101530.50;5113149;27;44943;-66
2022/10/09 09:07:22;;;;;;;;;6.75;6.75;;;;;15.02;48.96;101534.16;5112691;27;44878;-67
2022/10/09 09:10:01;;;;;;;;;8.00;7.75;;;;;14.97;48.86;101495.50;5112498;27;45605;-68
2022/10/09 09:12:45;;;;;;;;;7.67;7.67;;;;;15.26;48.60;101531.03;5111945;27;45108;-67
2022/10/09 09:15:21;;;;;;;;;7.67;5.67;;;;;15.40;48.69;101526.84;5111590;27;45154;-69
2022/10/09 09:18:18;;;;;;;;;7.67;7.00;;;;;15.45;48.70;101513.47;5108163;27;44915;-66
2022/10/09 09:20:53;;;;;;;;;5.67;4.00;;;;;15.50;48.39;101519.84;5117768;27;47755;-65
2022/10/09 09:23:31;;;;;;;;;7.00;7.00;;;;;15.56;48.31;101497.47;5113346;27;44995;-69
2022/10/09 09:25:58;;;;;;;;;7.67;7.00;;;;;15.71;48.53;101505.84;5113003;27;45176;-66
2022/10/09 09:28:33;;;;;;;;;11.67;9.67;;;;;15.63;48.14;101480.56;5113791;27;45100;-66
2022/10/09 09:31:06;;;;;;;;;7.67;7.67;;;;;15.86;48.29;101507.94;5110411;27;46056;-66
2022/10/09 09:33:40;;;;;;;;;9.33;7.00;;;;;14.70;48.27;101300.34;5111400;27;45493;-67
2022/10/09 09:36:58;;;;;;;;;11.00;11.00;;;;;15.90;48.34;101490.03;5108843;27;45399;-66
2022/10/09 09:39:28;;;;;;;;;8.33;6.67;;;;;15.92;47.83;101475.72;5085664;28;45314;-68
2022/10/09 09:42:19;;;;;;;;;7.33;6.33;;;;;16.13;47.87;101474.22;5104540;27;46243;-68
2022/10/09 09:45:08;;;;;;;;;6.33;4.33;;;;;16.29;48.05;101472.66;5100456;27;45053;-68
2022/10/09 09:47:48;;;;;;;;;6.00;6.00;;;;;16.44;47.41;101462.09;5103210;27;45123;-67
2022/10/09 09:50:14;;;;;;;;;9.33;7.33;;;;;16.50;46.98;101453.16;5100617;27;45243;-69
2022/10/09 09:52:44;;;;;;;;;9.67;6.67;;;;;16.64;46.60;101445.25;5090989;28;45402;-68
2022/10/09 09:55:28;;;;;;;;;6.67;6.67;;;;;16.88;46.48;101459.09;5093107;28;45051;-69
2022/10/09 09:58:15;;;;;;;;;6.33;6.33;;;;;16.64;45.87;101394.91;5093435;28;45245;-71
2022/10/09 10:00:40;;;;;;;;;7.00;3.67;;;;;17.04;46.06;101457.47;5090106;28;45239;-68
2022/10/09 10:03:14;;;;;;;;;4.33;4.33;;;;;17.23;46.24;101458.56;5093945;28;54074;-66
2022/10/09 10:05:42;;;;;;;;;4.00;4.00;;;;;17.53;45.49;101456.16;5076531;28;45084;-69
2022/10/09 10:08:21;;;;;;;;;5.00;5.00;;;;;17.82;44.74;101442.91;5094109;28;45277;-68
2022/10/09 10:10:49;;;;;;;;;4.33;4.00;;;;;17.83;44.45;101413.16;5090320;28;45504;-70
2022/10/09 10:13:18;;;;;;;;;4.00;4.00;;;;;18.01;43.99;101435.84;5090028;28;46188;-66
2022/10/09 10:15:52;;;;;;;;;7.00;6.67;;;;;18.11;43.70;101437.69;5091127;28;45163;-66
2022/10/09 10:18:19;;;;;;;;;5.00;3.67;;;;;18.18;43.87;101423.34;5090101;28;45079;-68
2022/10/09 10:20:56;;;;;;;;;5.67;4.00;;;;;18.00;43.51;101388.06;5090687;28;46120;-65
2022/10/09 10:23:39;;;;;;;;;4.00;4.00;;;;;17.67;43.97;101352.69;5088839;28;46339;-69
2022/10/09 10:26:11;;;;;;;;;7.00;4.00;;;;;17.93;43.59;101376.31;5085283;28;45582;-72
2022/10/09 10:28:51;;;;;;;;;6.67;6.67;;;;;18.17;43.74;101394.47;5089238;27;45145;-67
2022/10/09 10:31:31;;;;;;;;;4.67;3.67;;;;;18.31;43.71;101393.63;5091057;28;45155;-67
2022/10/09 10:33:56;;;;;;;;;9.00;7.33;;;;;18.52;43.22;101400.97;5091632;28;45250;-66
2022/10/09 10:36:24;;;;;;;;;8.33;5.00;;;;;18.33;42.52;101360.31;5085202;28;45107;-65
2022/10/09 10:39:09;;;;;;;;;5.00;5.00;;;;;18.42;42.77;101368.44;5088553;28;45282;-67
2022/10/09 10:41:46;;;;;;;;;8.33;5.00;;;;;18.65;42.55;101391.97;5088180;28;45386;-68
2022/10/09 10:44:21;;;;;;;;;5.00;5.00;;;;;18.70;42.56;101381.19;5090182;28;46371;-69
2022/10/09 10:46:52;;;;;;;;;2.00;2.00;;;;;18.81;42.97;101390.25;5092412;28;45167;-64
2022/10/09 10:49:20;;;;;;;;;4.67;4.33;;;;;18.89;42.34;101390.25;5095084;27;45061;-65
2022/10/09 10:52:02;;;;;;;;;2.00;2.00;;;;;18.92;41.92;101382.16;5108134;27;44992;-65
2022/10/09 10:54:51;;;;;;;;;4.67;4.00;;;;;18.91;41.89;101377.66;5111164;27;45756;-67
2022/10/09 10:57:32;;;;;;;;;3.67;3.00;;;;;18.79;42.05;101370.34;5106022;27;45284;-64
2022/10/09 11:00:06;;;;;;;;;3.00;3.00;;;;;18.82;42.23;101355.94;5110275;27;45000;-70
2022/10/09 11:02:41;;;;;;;;;5.33;3.00;;;;;18.85;42.10;101354.16;5109128;27;45093;-63
2022/10/09 11:05:31;;;;;;;;;9.00;7.33;;;;;18.94;42.34;101355.97;5109396;27;45530;-64
2022/10/09 11:08:11;;;;;;;;;5.00;2.67;;;;;19.05;42.39;101345.16;5103780;27;44934;-61
2022/10/09 11:10:55;;;;;;;;;5.00;4.00;;;;;19.12;41.97;101344.25;5108823;27;44925;-67
2022/10/09 11:13:46;;;;;;;;;2.00;2.00;;;;;19.12;41.58;101334.34;5111414;27;45046;-64
2022/10/09 11:16:41;;;;;;;;;2.00;2.00;;;;;19.17;41.87;101331.63;5111381;27;46245;-68
2022/10/09 11:19:37;;;;;;;;;4.33;3.00;;;;;19.10;41.85;101336.13;5075331;27;45183;-62
2022/10/09 11:22:46;;;;;;;;;4.00;2.67;;;;;19.17;41.89;101328.03;5111659;27;45107;-67
2022/10/09 11:25:28;;;;;;;;;5.67;5.67;;;;;19.07;42.01;101325.31;5034909;28;45510;-63
2022/10/09 11:28:23;;;;;;;;;6.00;3.00;;;;;19.09;41.92;101314.47;5029979;28;46254;-64
2022/10/09 11:31:07;;;;;;;;;4.33;4.00;;;;;19.02;41.92;101297.31;5077775;27;45305;-67
2022/10/09 11:33:40;;;;;;;;;3.00;3.00;;;;;19.05;42.04;101302.72;5095060;27;45238;-64
2022/10/09 11:36:18;;;;;;;;;2.67;2.67;;;;;19.01;42.22;101306.34;5098209;27;45439;-63